Pinkney, North Carolina
Current Conditions -  °F | °C
As of 7:54 PM on Saturday 25 Oct 2014 (Local Time) from KAKH Reporting Station
Clear Clear  
Wind Chill: 57°   Ceiling: Unl
Heat Index: 57°   Visibility: 10mi
Dew Point: 44°   Wind: 0mph
Humidity: 62%   Direction: NA
Pressure: 29.95"   Gusts: NA
Location:  35.2205°N, 81.2501°W
Report Text: KAKH 252354Z AUTO 00000KT 10SM CLR 14/07 A2995 RMK AO2 SLP144 T01390067 10233 20128 51003
Loading
Personal Weather Stations






























Interactive Weather Map
Tropical Storm Tracking
New forecast layout! Learn more

10-Day Weather Forecast

Advertisements
Track Severe Weather on mobile